Time;durP1;ratioP1;P1;durP2;ratioP2;P2;SDS_P1;SDS_P2;PMS_P1;PMS_P2;Temp;Humidity;BMP_temperature;BMP_pressure;BME280_temperature;BME280_humidity;BME280_pressure;Samples;Min_cycle;Max_cycle;Signal;HPM_P1;HPM_P2
2024/02/11 00:01:08;;;;;;;1999.90;999.90;;;10.60;99.90;;;;;;5095489;28;20111;-76
2024/02/11 00:03:38;;;;;;;1999.90;999.90;;;10.50;99.90;;;;;;5114503;28;20034;-77
2024/02/11 00:06:06;;;;;;;1999.90;999.90;;;10.50;99.90;;;;;;5113646;28;20473;-75
2024/02/11 00:08:32;;;;;;;1999.90;999.90;;;10.40;99.90;;;;;;5114123;28;20027;-77
2024/02/11 00:11:01;;;;;;;1999.90;999.90;;;10.50;99.90;;;;;;5115767;28;20594;-80
2024/02/11 00:13:28;;;;;;;1999.90;999.90;;;10.50;99.90;;;;;;5114052;28;20077;-80
2024/02/11 00:15:54;;;;;;;1999.90;999.90;;;10.60;99.90;;;;;;5095114;28;20398;-76
2024/02/11 00:18:22;;;;;;;1999.90;999.90;;;10.60;99.90;;;;;;5084980;28;20036;-76
2024/02/11 00:20:47;;;;;;;1999.90;999.90;;;10.70;99.90;;;;;;5075024;28;20024;-79
2024/02/11 00:23:13;;;;;;;1999.90;999.90;;;10.70;99.90;;;;;;5093944;28;20032;-80
2024/02/11 00:25:39;;;;;;;1999.90;999.90;;;10.70;99.90;;;;;;5093684;28;20491;-76
2024/02/11 00:28:08;;;;;;;1999.90;999.90;;;10.60;99.90;;;;;;5087177;28;20039;-80
2024/02/11 00:30:37;;;;;;;1999.90;999.90;;;10.60;99.90;;;;;;5101265;28;20012;-76
2024/02/11 00:33:06;;;;;;;1999.90;999.90;;;10.70;99.90;;;;;;5113028;28;20538;-80
2024/02/11 00:35:31;;;;;;;1999.90;999.90;;;10.70;99.90;;;;;;5114375;28;20024;-76
2024/02/11 00:38:00;;;;;;;1999.90;999.90;;;10.80;99.90;;;;;;5096472;28;20555;-76
2024/02/11 00:40:25;;;;;;;1999.90;999.90;;;10.80;99.90;;;;;;5095496;28;20058;-76
2024/02/11 00:42:51;;;;;;;1999.90;999.90;;;10.90;99.90;;;;;;5113631;28;20486;-76
2024/02/11 00:45:17;;;;;;;1999.90;999.90;;;11.00;99.90;;;;;;5116060;28;20486;-80
2024/02/11 00:47:43;;;;;;;1999.90;999.90;;;11.00;99.90;;;;;;5115163;28;20118;-79
2024/02/11 00:50:11;;;;;;;1999.90;999.90;;;11.00;99.90;;;;;;5119442;28;20000;-81
2024/02/11 00:52:49;;;;;;;1999.90;999.90;;;11.00;99.90;;;;;;5099488;28;20538;-76
2024/02/11 00:55:15;;;;;;;1999.90;999.90;;;10.90;99.90;;;;;;5099465;28;20082;-76
2024/02/11 00:57:43;;;;;;;1999.90;999.90;;;11.00;99.90;;;;;;5118457;28;20028;-76
2024/02/11 01:00:09;;;;;;;1999.90;999.90;;;10.90;99.90;;;;;;5099155;28;20074;-76
2024/02/11 01:02:36;;;;;;;1999.90;999.90;;;11.00;99.90;;;;;;5102747;28;20051;-77
2024/02/11 01:05:02;;;;;;;1999.90;999.90;;;11.00;99.90;;;;;;5098658;28;20048;-76
2024/02/11 01:07:27;;;;;;;1999.90;999.90;;;11.00;99.90;;;;;;5078755;28;20043;-76
2024/02/11 01:09:53;;;;;;;1999.90;999.90;;;10.90;99.90;;;;;;5096883;28;20160;-79
2024/02/11 01:12:18;;;;;;;1999.90;999.90;;;10.90;99.90;;;;;;5097521;28;20028;-76
2024/02/11 01:14:44;;;;;;;1999.90;999.90;;;10.80;99.90;;;;;;5078760;28;20027;-76
2024/02/11 01:17:10;;;;;;;1999.90;999.90;;;10.60;99.90;;;;;;5098282;28;20030;-80
2024/02/11 01:19:35;;;;;;;1999.90;999.90;;;10.30;99.90;;;;;;5078701;28;20504;-76
2024/02/11 01:22:02;;;;;;;1999.90;999.90;;;10.00;99.90;;;;;;5096812;28;20090;-78
2024/02/11 01:24:27;;;;;;;1999.90;999.90;;;9.80;99.90;;;;;;5106068;28;20012;-76
2024/02/11 01:26:53;;;;;;;1999.90;999.90;;;9.60;99.90;;;;;;5100686;27;20078;-76
2024/02/11 01:29:19;;;;;;;1999.90;999.90;;;9.60;99.90;;;;;;5119139;27;20037;-80
2024/02/11 01:31:44;;;;;;;1999.90;999.90;;;9.60;99.90;;;;;;5138069;27;20367;-76
2024/02/11 01:34:10;;;;;;;1999.90;999.90;;;9.60;99.90;;;;;;5118457;27;20031;-76
2024/02/11 01:36:36;;;;;;;1999.90;999.90;;;9.70;99.90;;;;;;5116936;28;20024;-76
2024/02/11 01:39:02;;;;;;;1999.90;999.90;;;9.80;99.90;;;;;;5118436;28;20031;-76
2024/02/11 01:41:27;;;;;;;1999.90;999.90;;;9.80;99.90;;;;;;5098596;28;20039;-77
2024/02/11 01:43:53;;;;;;;1999.90;999.90;;;9.90;99.90;;;;;;5099928;28;20023;-76
2024/02/11 01:46:20;;;;;;;1999.90;999.90;;;10.00;99.90;;;;;;5117421;28;20106;-76
2024/02/11 01:48:46;;;;;;;1999.90;999.90;;;10.00;99.90;;;;;;5116952;28;20016;-76
2024/02/11 01:51:12;;;;;;;1999.90;999.90;;;10.20;99.90;;;;;;5115807;28;20386;-76
2024/02/11 01:53:40;;;;;;;1999.90;999.90;;;10.20;99.90;;;;;;5116750;28;20026;-76
2024/02/11 01:56:07;;;;;;;1999.90;999.90;;;10.30;99.90;;;;;;5102912;28;20059;-78
2024/02/11 01:58:33;;;;;;;1999.90;999.90;;;10.40;99.90;;;;;;5101194;28;20059;-76
2024/02/11 02:00:59;;;;;;;1999.90;999.90;;;10.10;99.90;;;;;;5116001;28;20032;-81
2024/02/11 02:03:25;;;;;;;1999.90;999.90;;;9.70;99.90;;;;;;5096367;28;20028;-81
2024/02/11 02:05:51;;;;;;;1999.90;999.90;;;9.50;99.90;;;;;;5095534;28;20048;-76
2024/02/11 02:08:17;;;;;;;1999.90;999.90;;;9.40;99.90;;;;;;5110110;28;20441;-80
2024/02/11 02:10:44;;;;;;;1999.90;999.90;;;9.50;99.90;;;;;;5118639;28;20016;-77
2024/02/11 02:13:10;;;;;;;1999.90;999.90;;;9.50;99.90;;;;;;5116344;28;20023;-76
2024/02/11 02:15:36;;;;;;;1999.90;999.90;;;9.60;99.90;;;;;;5098032;28;20015;-80
2024/02/11 02:18:01;;;;;;;1999.90;999.90;;;9.60;99.90;;;;;;5100645;28;20384;-76
2024/02/11 02:20:27;;;;;;;1999.90;999.90;;;9.60;99.90;;;;;;5098024;28;20023;-76
2024/02/11 02:22:53;;;;;;;1999.90;999.90;;;9.60;99.90;;;;;;5098323;28;20481;-76
2024/02/11 02:25:19;;;;;;;1999.90;999.90;;;9.60;99.90;;;;;;5097764;28;20019;-81
2024/02/11 02:27:46;;;;;;;1999.90;999.90;;;9.60;99.90;;;;;;5115780;28;20050;-77
2024/02/11 02:30:12;;;;;;;1999.90;999.90;;;9.70;99.90;;;;;;5099647;28;20032;-79
2024/02/11 02:32:38;;;;;;;1999.90;999.90;;;9.80;99.90;;;;;;5115606;28;20023;-76
2024/02/11 02:35:03;;;;;;;1999.90;999.90;;;9.90;99.90;;;;;;5116242;28;20029;-76
2024/02/11 02:37:30;;;;;;;1999.90;999.90;;;9.90;99.90;;;;;;5116108;28;20030;-80
2024/02/11 02:39:55;;;;;;;1999.90;999.90;;;10.00;99.90;;;;;;5115932;28;20111;-80
2024/02/11 02:42:21;;;;;;;1999.90;999.90;;;10.00;99.90;;;;;;5118494;28;20055;-76
2024/02/11 02:44:47;;;;;;;1999.90;999.90;;;10.20;99.90;;;;;;5125945;28;20038;-76
2024/02/11 02:47:13;;;;;;;1999.90;999.90;;;10.30;99.90;;;;;;5115746;28;20494;-75
2024/02/11 02:49:40;;;;;;;1999.90;999.90;;;10.30;99.90;;;;;;5118690;28;20026;-75
2024/02/11 02:52:07;;;;;;;1999.90;999.90;;;10.40;99.90;;;;;;5121773;28;20040;-75
2024/02/11 02:54:34;;;;;;;1999.90;999.90;;;10.50;99.90;;;;;;5115413;28;20019;-76
2024/02/11 02:56:59;;;;;;;1999.90;999.90;;;10.50;99.90;;;;;;5095752;28;20032;-77
2024/02/11 02:59:26;;;;;;;1999.90;999.90;;;10.50;99.90;;;;;;5095523;28;20020;-75
2024/02/11 03:02:01;;;;;;;1999.90;999.90;;;10.40;99.90;;;;;;5089098;28;20027;-79
2024/02/11 03:04:27;;;;;;;1999.90;999.90;;;10.20;99.90;;;;;;5107049;28;20070;-76
2024/02/11 03:06:54;;;;;;;1999.90;999.90;;;10.10;99.90;;;;;;5097000;28;20425;-79
2024/02/11 03:09:20;;;;;;;1999.90;999.90;;;10.00;99.90;;;;;;5114835;28;20023;-76
2024/02/11 03:11:47;;;;;;;1999.90;999.90;;;10.00;99.90;;;;;;5114839;28;20024;-76
2024/02/11 03:14:12;;;;;;;1999.90;999.90;;;9.90;99.90;;;;;;5113866;28;20024;-75
2024/02/11 03:16:38;;;;;;;1999.90;999.90;;;9.90;99.90;;;;;;5117024;28;20023;-77
2024/02/11 03:19:05;;;;;;;1999.90;999.90;;;9.90;99.90;;;;;;5098116;28;20031;-79
2024/02/11 03:21:32;;;;;;;1999.90;999.90;;;9.90;99.90;;;;;;5115216;28;20030;-76
2024/02/11 03:23:58;;;;;;;1999.90;999.90;;;9.90;99.90;;;;;;5120889;28;20047;-81
2024/02/11 03:26:24;;;;;;;1999.90;999.90;;;10.00;99.90;;;;;;5114759;28;20023;-76
2024/02/11 03:28:50;;;;;;;1999.90;999.90;;;10.00;99.90;;;;;;5114531;28;20110;-79
2024/02/11 03:31:15;;;;;;;1999.90;999.90;;;10.00;99.90;;;;;;5097440;28;20444;-76
2024/02/11 03:33:41;;;;;;;1999.90;999.90;;;10.20;99.90;;;;;;5092303;28;20052;-76
2024/02/11 03:36:07;;;;;;;1999.90;999.90;;;10.30;99.90;;;;;;5081537;28;20016;-76
2024/02/11 03:38:32;;;;;;;1999.90;999.90;;;10.30;99.90;;;;;;5077711;28;20052;-79
2024/02/11 03:40:58;;;;;;;1999.90;999.90;;;10.40;99.90;;;;;;5094199;28;20023;-76
2024/02/11 03:43:24;;;;;;;1999.90;999.90;;;10.40;99.90;;;;;;5105764;28;20008;-76
2024/02/11 03:45:50;;;;;;;1999.90;999.90;;;10.40;99.90;;;;;;5096568;28;20156;-76
2024/02/11 03:48:18;;;;;;;1999.90;999.90;;;10.40;99.90;;;;;;5092556;28;20066;-76
2024/02/11 03:50:45;;;;;;;1999.90;999.90;;;10.50;99.90;;;;;;5092983;28;20043;-76
2024/02/11 03:53:12;;;;;;;1999.90;999.90;;;10.40;99.90;;;;;;5093919;28;20020;-76
2024/02/11 03:55:37;;;;;;;1999.90;999.90;;;10.10;99.90;;;;;;5093899;28;20020;-80
2024/02/11 03:58:04;;;;;;;1999.90;999.90;;;9.90;99.90;;;;;;5099485;28;20028;-79
2024/02/11 04:00:31;;;;;;;1999.90;999.90;;;10.00;99.90;;;;;;5094072;28;20024;-76
2024/02/11 04:02:58;;;;;;;1999.90;999.90;;;10.10;99.90;;;;;;5110484;28;20023;-80
2024/02/11 04:05:26;;;;;;;1999.90;999.90;;;10.10;99.90;;;;;;5113964;28;20422;-76
2024/02/11 04:07:53;;;;;;;1999.90;999.90;;;10.30;99.90;;;;;;5095645;28;20114;-76
2024/02/11 04:10:19;;;;;;;1999.90;999.90;;;10.40;99.90;;;;;;5121556;28;20035;-80
2024/02/11 04:12:52;;;;;;;1999.90;999.90;;;10.50;99.90;;;;;;5096101;28;20473;-80
2024/02/11 04:15:22;;;;;;;1999.90;999.90;;;10.40;99.90;;;;;;5114018;28;20034;-76
2024/02/11 04:17:49;;;;;;;1999.90;999.90;;;10.30;99.90;;;;;;5114095;28;20027;-80
2024/02/11 04:20:24;;;;;;;1999.90;999.90;;;10.30;99.90;;;;;;5114180;28;20070;-76
2024/02/11 04:22:58;;;;;;;1999.90;999.90;;;10.20;99.90;;;;;;5115264;28;20019;-80
2024/02/11 04:25:34;;;;;;;1999.90;999.90;;;10.20;99.90;;;;;;5116430;28;20049;-76
2024/02/11 04:28:09;;;;;;;1999.90;999.90;;;10.30;99.90;;;;;;5086662;28;20166;-76
2024/02/11 04:30:37;;;;;;;1999.90;999.90;;;10.30;99.90;;;;;;5125331;28;20043;-77
2024/02/11 04:33:03;;;;;;;1999.90;999.90;;;10.40;99.90;;;;;;5113379;28;20031;-77
2024/02/11 04:35:30;;;;;;;1999.90;999.90;;;10.40;99.90;;;;;;5113708;28;20027;-76
2024/02/11 04:37:56;;;;;;;1999.90;999.90;;;10.50;99.90;;;;;;5095930;28;20096;-76
2024/02/11 04:40:24;;;;;;;1999.90;999.90;;;10.60;99.90;;;;;;5095433;28;20406;-77
2024/02/11 04:42:52;;;;;;;1999.90;999.90;;;10.70;99.90;;;;;;5095349;28;20115;-76
2024/02/11 04:45:19;;;;;;;1999.90;999.90;;;10.70;99.90;;;;;;5096638;28;20447;-76
2024/02/11 04:47:58;;;;;;;1999.90;999.90;;;10.60;99.90;;;;;;5095011;28;20023;-76
2024/02/11 04:50:28;;;;;;;1999.90;999.90;;;10.40;99.90;;;;;;5114225;28;20028;-76
2024/02/11 04:52:55;;;;;;;1999.90;999.90;;;10.20;99.90;;;;;;5095329;28;20023;-80
2024/02/11 04:55:28;;;;;;;1999.90;999.90;;;10.10;99.90;;;;;;5095457;28;20118;-77
2024/02/11 04:58:00;;;;;;;1999.90;999.90;;;10.00;99.90;;;;;;5121956;28;20039;-80
2024/02/11 05:00:29;;;;;;;1999.90;999.90;;;9.90;99.90;;;;;;5107094;28;20066;-76
2024/02/11 05:02:58;;;;;;;1999.90;999.90;;;9.90;99.90;;;;;;5111108;28;20063;-76
2024/02/11 05:05:28;;;;;;;1999.90;999.90;;;9.90;99.90;;;;;;5094767;28;20051;-76
2024/02/11 05:07:55;;;;;;;1999.90;999.90;;;9.90;99.90;;;;;;5113363;28;20077;-76
2024/02/11 05:10:27;;;;;;;1999.90;999.90;;;9.90;99.90;;;;;;5114006;28;20027;-76
2024/02/11 05:12:56;;;;;;;1999.90;999.90;;;10.00;99.90;;;;;;5095072;28;20185;-76
2024/02/11 05:15:24;;;;;;;1999.90;999.90;;;10.10;99.90;;;;;;5113305;28;20022;-76
2024/02/11 05:17:50;;;;;;;1999.90;999.90;;;10.10;99.90;;;;;;5115412;28;20106;-81
2024/02/11 05:20:26;;;;;;;1999.90;999.90;;;10.10;99.90;;;;;;5113554;28;20439;-81
2024/02/11 05:22:54;;;;;;;1999.90;999.90;;;9.90;99.90;;;;;;5096347;28;20026;-76
2024/02/11 05:25:21;;;;;;;1999.90;999.90;;;9.50;99.90;;;;;;5095158;28;20023;-76
2024/02/11 05:27:55;;;;;;;1999.90;999.90;;;9.40;99.90;;;;;;5122486;28;20043;-77
2024/02/11 05:30:25;;;;;;;1999.90;999.90;;;9.30;99.90;;;;;;5135219;28;20087;-80
2024/02/11 05:32:54;;;;;;;1999.90;999.90;;;9.30;99.90;;;;;;5126360;28;20031;-76
2024/02/11 05:35:27;;;;;;;1999.90;999.90;;;9.20;99.90;;;;;;5122744;28;20007;-76
2024/02/11 05:38:01;;;;;;;1999.90;999.90;;;9.20;99.90;;;;;;5119653;28;20556;-76
2024/02/11 05:40:28;;;;;;;1999.90;999.90;;;9.20;99.90;;;;;;5098747;28;20032;-76
2024/02/11 05:42:55;;;;;;;1999.90;999.90;;;9.30;99.90;;;;;;5098763;28;20512;-77
2024/02/11 05:45:21;;;;;;;1999.90;999.90;;;9.30;99.90;;;;;;5116962;28;20059;-77
2024/02/11 05:47:47;;;;;;;1999.90;999.90;;;9.40;99.90;;;;;;5116803;28;20055;-76
2024/02/11 05:50:13;;;;;;;1999.90;999.90;;;9.60;99.90;;;;;;5101227;28;20028;-77
2024/02/11 05:52:40;;;;;;;1999.90;999.90;;;9.70;99.90;;;;;;5116636;28;20486;-77
2024/02/11 05:55:09;;;;;;;1999.90;999.90;;;9.50;99.90;;;;;;5099320;28;20024;-77
2024/02/11 05:57:39;;;;;;;1999.90;999.90;;;9.40;99.90;;;;;;5116735;28;20107;-77
2024/02/11 06:00:13;;;;;;;1999.90;999.90;;;9.50;99.90;;;;;;5098276;28;20482;-76
2024/02/11 06:02:43;;;;;;;1999.90;999.90;;;9.50;99.90;;;;;;5102661;28;20085;-76
2024/02/11 06:05:12;;;;;;;1999.90;999.90;;;9.50;99.90;;;;;;5097543;28;20056;-81
2024/02/11 06:07:43;;;;;;;1999.90;999.90;;;9.50;99.90;;;;;;5098033;28;20031;-76
2024/02/11 06:10:12;;;;;;;1999.90;999.90;;;9.50;99.90;;;;;;5125432;28;20053;-76
2024/02/11 06:12:42;;;;;;;1999.90;999.90;;;9.60;99.90;;;;;;5116390;28;20028;-80
2024/02/11 06:15:10;;;;;;;1999.90;999.90;;;9.60;99.90;;;;;;5116398;28;20050;-76
2024/02/11 06:17:40;;;;;;;1999.90;999.90;;;9.60;99.90;;;;;;5098380;28;20085;-80
2024/02/11 06:20:09;;;;;;;1999.90;999.90;;;9.60;99.90;;;;;;5116009;28;20031;-76
2024/02/11 06:22:38;;;;;;;1999.90;999.90;;;9.50;99.90;;;;;;5100240;28;20509;-77
2024/02/11 06:25:04;;;;;;;1999.90;999.90;;;9.50;99.90;;;;;;5097943;28;20032;-76
2024/02/11 06:27:30;;;;;;;1999.90;999.90;;;9.60;99.90;;;;;;5115811;28;20103;-75
2024/02/11 06:29:57;;;;;;;1999.90;999.90;;;9.60;99.90;;;;;;5116513;28;20451;-76
2024/02/11 06:32:23;;;;;;;1999.90;999.90;;;9.60;99.90;;;;;;5097565;28;20042;-76
2024/02/11 06:34:49;;;;;;;1999.90;999.90;;;9.70;99.90;;;;;;5116330;28;20102;-80
2024/02/11 06:37:15;;;;;;;1999.90;999.90;;;9.70;99.90;;;;;;5118129;28;20067;-76
2024/02/11 06:39:41;;;;;;;1999.90;999.90;;;9.80;99.90;;;;;;5115777;28;20015;-77
2024/02/11 06:42:10;;;;;;;1999.90;999.90;;;9.80;99.90;;;;;;5119142;28;20034;-76
2024/02/11 06:44:39;;;;;;;1999.90;999.90;;;9.90;99.90;;;;;;5123798;28;20038;-77
2024/02/11 06:47:10;;;;;;;1999.90;999.90;;;9.90;99.90;;;;;;5115467;28;20024;-76
2024/02/11 06:49:40;;;;;;;1999.90;999.90;;;9.90;99.90;;;;;;5097107;28;20034;-80
2024/02/11 06:52:09;;;;;;;1999.90;999.90;;;9.90;99.90;;;;;;5097577;28;20028;-76
2024/02/11 06:54:42;;;;;;;1999.90;999.90;;;9.90;99.90;;;;;;5115564;28;20085;-76
2024/02/11 06:57:10;;;;;;;1999.90;999.90;;;9.90;99.90;;;;;;5104453;28;20087;-76
2024/02/11 06:59:36;;;;;;;1999.90;999.90;;;10.00;99.90;;;;;;5117705;28;20034;-76
2024/02/11 07:02:04;;;;;;;1999.90;999.90;;;10.00;99.90;;;;;;5105306;28;20390;-76
2024/02/11 07:04:33;;;;;;;1999.90;999.90;;;10.00;99.90;;;;;;5094791;28;20066;-77
2024/02/11 07:07:00;;;;;;;1999.90;999.90;;;10.00;99.90;;;;;;5095071;28;20028;-76
2024/02/11 07:09:26;;;;;;;1999.90;999.90;;;10.00;99.90;;;;;;5094668;28;20428;-80
2024/02/11 07:11:52;;;;;;;1999.90;999.90;;;10.00;99.90;;;;;;5096895;28;20135;-77
2024/02/11 07:14:18;;;;;;;1999.90;999.90;;;9.90;99.90;;;;;;5076531;28;20055;-76
2024/02/11 07:16:44;;;;;;;1999.90;999.90;;;9.80;99.90;;;;;;5097002;28;20561;-78
2024/02/11 07:19:13;;;;;;;1999.90;999.90;;;9.80;99.90;;;;;;5078533;28;20024;-76
2024/02/11 07:21:41;;;;;;;1999.90;999.90;;;9.60;99.90;;;;;;5076514;28;20059;-76
2024/02/11 07:24:07;;;;;;;1999.90;999.90;;;9.60;99.90;;;;;;5094942;28;20376;-76
2024/02/11 07:26:34;;;;;;;1999.90;999.90;;;9.60;99.90;;;;;;5094489;28;20036;-77
2024/02/11 07:29:08;;;;;;;1999.90;999.90;;;9.60;99.90;;;;;;5075825;28;20039;-80
2024/02/11 07:31:35;;;;;;;1999.90;999.90;;;9.60;99.90;;;;;;5103009;28;20028;-77
2024/02/11 07:34:02;;;;;;;1999.90;999.90;;;9.60;99.90;;;;;;5072408;28;20024;-80
2024/02/11 07:36:28;;;;;;;1999.90;999.90;;;9.80;99.90;;;;;;5072608;28;20032;-76
2024/02/11 07:38:54;;;;;;;1999.90;999.90;;;9.90;99.90;;;;;;5074392;28;20028;-77
2024/02/11 07:41:21;;;;;;;1999.90;999.90;;;9.90;99.90;;;;;;5055946;28;20103;-76
2024/02/11 07:43:47;;;;;;;1999.90;999.90;;;9.90;99.90;;;;;;5077783;28;20021;-79
2024/02/11 07:46:16;;;;;;;1999.90;999.90;;;10.00;99.90;;;;;;5074897;28;20147;-76
2024/02/11 07:48:42;;;;;;;1999.90;999.90;;;10.00;99.90;;;;;;5055769;28;20056;-77
2024/02/11 07:51:08;;;;;;;1999.90;999.90;;;10.00;99.90;;;;;;5084332;28;20072;-77
2024/02/11 07:53:36;;;;;;;1999.90;999.90;;;9.90;99.90;;;;;;5074992;28;20503;-77
2024/02/11 07:56:02;;;;;;;1999.90;999.90;;;9.90;99.90;;;;;;5055577;28;20089;-76
2024/02/11 07:58:28;;;;;;;1999.90;999.90;;;10.00;99.90;;;;;;5074094;28;20020;-76
2024/02/11 08:00:54;;;;;;;1999.90;999.90;;;10.00;99.90;;;;;;5073579;28;20037;-76
2024/02/11 08:03:20;;;;;;;1999.90;999.90;;;10.00;99.90;;;;;;5075309;28;20051;-76
2024/02/11 08:05:46;;;;;;;1999.90;999.90;;;10.00;99.90;;;;;;5115070;28;20051;-76
2024/02/11 08:08:12;;;;;;;1999.90;999.90;;;9.90;99.90;;;;;;5095653;28;20401;-76
2024/02/11 08:10:38;;;;;;;1999.90;999.90;;;9.80;99.90;;;;;;5095829;28;20110;-76
2024/02/11 08:13:07;;;;;;;1999.90;999.90;;;9.80;99.90;;;;;;5096405;28;20020;-79
2024/02/11 08:15:34;;;;;;;1999.90;999.90;;;9.90;99.90;;;;;;5095739;28;20023;-76
2024/02/11 08:18:04;;;;;;;1999.90;999.90;;;9.90;99.90;;;;;;5095841;28;20115;-76
2024/02/11 08:20:31;;;;;;;1999.90;999.90;;;10.10;99.90;;;;;;5116188;28;20028;-76
2024/02/11 08:22:57;;;;;;;1999.90;999.90;;;10.30;99.90;;;;;;5113749;28;20157;-76
2024/02/11 08:25:23;;;;;;;1999.90;999.90;;;10.50;99.90;;;;;;5097321;28;20059;-77
2024/02/11 08:27:49;;;;;;;1999.90;999.90;;;10.80;99.90;;;;;;5103385;28;20070;-77
2024/02/11 08:30:15;;;;;;;1999.90;999.90;;;10.90;99.90;;;;;;5093732;28;20471;-79
2024/02/11 08:32:42;;;;;;;1999.90;999.90;;;11.00;99.90;;;;;;5072465;28;20062;-76
2024/02/11 08:35:11;;;;;;;1999.90;999.90;;;10.90;99.90;;;;;;5073517;28;20099;-80
2024/02/11 08:37:37;;;;;;;1999.90;999.90;;;10.80;99.90;;;;;;5073618;28;20445;-80
2024/02/11 08:40:03;;;;;;;1999.90;999.90;;;10.70;99.90;;;;;;5073894;28;20041;-79
2024/02/11 08:42:29;;;;;;;1999.90;999.90;;;10.70;99.90;;;;;;5073104;28;20040;-77
2024/02/11 08:44:55;;;;;;;1999.90;999.90;;;10.60;99.90;;;;;;5073497;28;20024;-80
2024/02/11 08:47:22;;;;;;;1999.90;999.90;;;10.60;99.90;;;;;;5073328;28;20025;-78
2024/02/11 08:49:48;;;;;;;1999.90;999.90;;;10.50;99.90;;;;;;5072693;28;20499;-80
2024/02/11 08:52:14;;;;;;;1999.90;999.90;;;10.60;99.90;;;;;;5075375;28;20029;-77
2024/02/11 08:54:43;;;;;;;1999.90;999.90;;;10.50;99.90;;;;;;5073000;28;20407;-77
2024/02/11 08:57:17;;;;;;;1999.90;999.90;;;10.40;99.90;;;;;;5075031;28;20017;-80
2024/02/11 08:59:46;;;;;;;1999.90;999.90;;;10.40;99.90;;;;;;5057216;28;20029;-80
2024/02/11 09:02:12;;;;;;;1999.90;999.90;;;10.40;99.90;;;;;;5074879;28;20116;-77
2024/02/11 09:04:38;;;;;;;1999.90;999.90;;;10.60;99.90;;;;;;5078566;28;20102;-80
2024/02/11 09:07:07;;;;;;;1999.90;999.90;;;10.80;99.90;;;;;;5113331;28;20074;-77
2024/02/11 09:09:33;;;;;;;1999.90;999.90;;;10.80;99.90;;;;;;5097332;28;20028;-77
2024/02/11 09:11:59;;;;;;;1999.90;999.90;;;10.50;99.90;;;;;;5119711;28;20028;-80
2024/02/11 09:14:27;;;;;;;1999.90;999.90;;;10.20;99.90;;;;;;5117542;28;20052;-80
2024/02/11 09:16:54;;;;;;;1999.90;999.90;;;10.20;99.90;;;;;;5104521;28;20028;-76
2024/02/11 09:19:21;;;;;;;1999.90;999.90;;;10.50;99.90;;;;;;5097125;28;20028;-76
2024/02/11 09:21:47;;;;;;;1999.90;999.90;;;10.70;99.90;;;;;;5097038;28;20414;-76
2024/02/11 09:24:13;;;;;;;1999.90;999.90;;;10.70;99.90;;;;;;5099135;28;20008;-80
2024/02/11 09:26:39;;;;;;;1999.90;999.90;;;10.80;99.90;;;;;;5096877;28;20103;-77
2024/02/11 09:29:07;;;;;;;1999.90;999.90;;;11.00;99.90;;;;;;5098771;28;20437;-80
2024/02/11 09:31:33;;;;;;;1999.90;999.90;;;11.00;99.90;;;;;;5128659;28;20023;-77
2024/02/11 09:33:59;;;;;;;1999.90;999.90;;;11.40;99.90;;;;;;5116227;28;20027;-77
2024/02/11 09:36:25;;;;;;;1999.90;999.90;;;11.30;99.90;;;;;;5098675;28;20120;-77
2024/02/11 09:38:51;;;;;;;1999.90;999.90;;;11.10;99.90;;;;;;5098833;28;20016;-81
2024/02/11 09:41:16;;;;;;;1999.90;999.90;;;11.40;99.90;;;;;;5117378;28;20020;-77
2024/02/11 09:43:45;;;;;;;1999.90;999.90;;;11.40;99.90;;;;;;5117033;28;20068;-80
2024/02/11 09:46:15;;;;;;;1999.90;999.90;;;11.50;99.90;;;;;;5129681;28;20032;-77
2024/02/11 09:48:44;;;;;;;1999.90;999.90;;;11.50;99.90;;;;;;5116766;28;20055;-77
2024/02/11 09:51:12;;;;;;;1999.90;999.90;;;11.50;99.90;;;;;;5098499;28;20019;-77
2024/02/11 09:53:39;;;;;;;1999.90;999.90;;;11.40;99.90;;;;;;5104941;28;20110;-81
2024/02/11 09:56:06;;;;;;;1999.90;999.90;;;11.30;99.90;;;;;;5116476;28;20035;-81
2024/02/11 09:58:32;;;;;;;1999.90;999.90;;;11.30;99.90;;;;;;5117422;28;20016;-77
2024/02/11 10:00:59;;;;;;;1999.90;999.90;;;11.40;99.90;;;;;;5097986;28;20036;-77
2024/02/11 10:03:29;;;;;;;1999.90;999.90;;;11.50;99.90;;;;;;5115675;28;20015;-77
2024/02/11 10:05:58;;;;;;;1999.90;999.90;;;11.60;99.90;;;;;;5119411;28;20059;-79
2024/02/11 10:08:24;;;;;;;1999.90;999.90;;;11.70;99.90;;;;;;5118671;28;20046;-80
2024/02/11 10:10:50;;;;;;;1999.90;999.90;;;12.00;99.90;;;;;;5098678;28;20030;-77
2024/02/11 10:13:19;;;;;;;1999.90;999.90;;;12.30;99.90;;;;;;5101371;28;20120;-80
2024/02/11 10:15:46;;;;;;;1999.90;999.90;;;12.40;99.90;;;;;;5116148;28;20076;-80
2024/02/11 10:18:14;;;;;;;1999.90;999.90;;;12.40;99.90;;;;;;5097995;28;20047;-81
2024/02/11 10:20:40;;;;;;;1999.90;999.90;;;12.10;99.90;;;;;;5115375;28;20073;-78
2024/02/11 10:23:06;;;;;;;1999.90;999.90;;;12.10;99.90;;;;;;5097114;28;20466;-81
2024/02/11 10:25:33;;;;;;;1999.90;999.90;;;12.00;99.90;;;;;;5098014;28;20020;-78
2024/02/11 10:27:59;;;;;;;1999.90;999.90;;;11.70;99.90;;;;;;5087555;28;20115;-81
2024/02/11 10:30:25;;;;;;;1999.90;999.90;;;11.80;99.90;;;;;;5095903;28;20479;-76
2024/02/11 10:32:55;;;;;;;1999.90;999.90;;;11.80;99.90;;;;;;5103156;28;20057;-81
2024/02/11 10:35:26;;;;;;;1999.90;999.90;;;11.60;99.90;;;;;;5116198;28;20428;-81
2024/02/11 10:37:52;;;;;;;1999.90;999.90;;;11.50;99.90;;;;;;5115939;28;20098;-80
2024/02/11 10:40:19;;;;;;;1999.90;999.90;;;11.60;99.90;;;;;;5098697;28;20024;-81
2024/02/11 10:42:45;;;;;;;1999.90;999.90;;;11.50;99.90;;;;;;5115950;28;20066;-80
2024/02/11 10:45:11;;;;;;;1999.90;999.90;;;11.40;99.90;;;;;;5101213;28;20010;-80
2024/02/11 10:47:37;;;;;;;1999.90;999.90;;;11.50;99.90;;;;;;5106782;28;20398;-81
2024/02/11 10:50:03;;;;;;;1999.90;999.90;;;11.70;99.90;;;;;;5097074;28;20055;-81
2024/02/11 10:52:37;;;;;;;1999.90;999.90;;;12.00;99.90;;;;;;5116093;28;20075;-81
2024/02/11 10:55:04;;;;;;;1999.90;999.90;;;12.20;99.90;;;;;;5097290;28;20066;-80
2024/02/11 10:57:40;;;;;;;1999.90;999.90;;;12.60;99.90;;;;;;5097205;28;20019;-80
2024/02/11 11:00:08;;;;;;;1999.90;999.90;;;12.70;99.90;;;;;;5117595;28;20026;-77
2024/02/11 11:02:36;;;;;;;1999.90;999.90;;;12.90;99.90;;;;;;5095104;28;20035;-78
2024/02/11 11:05:07;;;;;;;1999.90;999.90;;;13.30;99.90;;;;;;5114929;28;20044;-80
2024/02/11 11:07:36;;;;;;;1999.90;999.90;;;13.10;99.90;;;;;;5098784;28;20032;-81
2024/02/11 11:10:10;;;;;;;1999.90;999.90;;;12.50;99.90;;;;;;5096871;28;20027;-80
2024/02/11 11:12:37;;;;;;;1999.90;999.90;;;12.30;99.90;;;;;;5115693;28;20015;-77
2024/02/11 11:15:08;;;;;;;1999.90;999.90;;;12.40;99.90;;;;;;5096969;28;20111;-80
2024/02/11 11:17:35;;;;;;;1999.90;999.90;;;12.40;99.90;;;;;;5096854;28;20077;-79
2024/02/11 11:20:06;;;;;;;1999.90;999.90;;;12.90;99.90;;;;;;5099192;28;20107;-78
2024/02/11 11:22:33;;;;;;;1999.90;999.90;;;12.90;99.90;;;;;;5097185;28;20128;-76
2024/02/11 11:24:59;;;;;;;1999.90;999.90;;;13.10;99.90;;;;;;5115206;28;20023;-80
2024/02/11 11:27:25;;;;;;;1999.90;999.90;;;13.30;99.90;;;;;;5090602;28;20024;-76
2024/02/11 11:29:54;;;;;;;1999.90;999.90;;;13.30;99.90;;;;;;5075292;28;20020;-80
2024/02/11 11:32:23;;;;;;;1999.90;999.90;;;13.30;99.90;;;;;;5079066;28;20023;-81
2024/02/11 11:34:50;;;;;;;1999.90;999.90;;;13.30;99.90;;;;;;5096015;28;20027;-80
2024/02/11 11:37:16;;;;;;;1999.90;999.90;;;13.00;99.90;;;;;;5096314;28;20024;-81
2024/02/11 11:39:45;;;;;;;1999.90;999.90;;;12.80;99.90;;;;;;5106202;28;20028;-77
2024/02/11 11:42:12;;;;;;;1999.90;999.90;;;12.80;99.90;;;;;;5096418;28;20114;-78
2024/02/11 11:44:38;;;;;;;1999.90;999.90;;;13.10;99.90;;;;;;5114571;28;20022;-77
2024/02/11 11:47:05;;;;;;;1999.90;999.90;;;13.10;99.90;;;;;;5114790;28;20043;-81
2024/02/11 11:49:33;;;;;;;1999.90;999.90;;;12.60;99.90;;;;;;5114466;28;20063;-80
2024/02/11 11:51:59;;;;;;;1999.90;999.90;;;12.30;99.90;;;;;;5118969;28;20394;-81
2024/02/11 11:54:28;;;;;;;1999.90;999.90;;;12.00;99.90;;;;;;5114467;28;20027;-80
2024/02/11 11:56:58;;;;;;;1999.90;999.90;;;12.10;99.90;;;;;;5095942;28;20545;-77
2024/02/11 11:59:25;;;;;;;1999.90;999.90;;;11.90;99.90;;;;;;5116283;28;20028;-81
2024/02/11 12:01:52;;;;;;;1999.90;999.90;;;11.60;99.90;;;;;;5090771;28;20061;-81